sensor_id;sensor_type;location;lat;lon;timestamp;pressure;altitude;pressure_sealevel;temperature;humidity
73936;BME280;62287;50.858;0.252;2023-03-01T00:00:19;103001.61;;;10.38;43.12
73936;BME280;62287;50.858;0.252;2023-03-01T00:00:50;102999.62;;;9.62;43.15
73936;BME280;62287;50.858;0.252;2023-03-01T00:01:24;103002.88;;;9.85;43.30
73936;BME280;62287;50.858;0.252;2023-03-01T00:01:55;103002.98;;;9.45;43.19
73936;BME280;62287;50.858;0.252;2023-03-01T00:02:26;103003.09;;;9.51;43.27
73936;BME280;62287;50.858;0.252;2023-03-01T00:02:57;103000.13;;;9.92;43.19
73936;BME280;62287;50.858;0.252;2023-03-01T00:03:28;103000.95;;;9.40;43.34
73936;BME280;62287;50.858;0.252;2023-03-01T00:03:59;103001.62;;;9.65;43.47
73936;BME280;62287;50.858;0.252;2023-03-01T00:04:31;103000.55;;;9.67;43.33
73936;BME280;62287;50.858;0.252;2023-03-01T00:05:04;102999.74;;;9.61;43.50
73936;BME280;62287;50.858;0.252;2023-03-01T00:05:35;102999.53;;;10.07;43.39
73936;BME280;62287;50.858;0.252;2023-03-01T00:06:06;102995.26;;;9.88;43.30
73936;BME280;62287;50.858;0.252;2023-03-01T00:06:37;102997.59;;;9.76;43.18
73936;BME280;62287;50.858;0.252;2023-03-01T00:07:08;102999.27;;;9.67;43.26
73936;BME280;62287;50.858;0.252;2023-03-01T00:07:39;102997.73;;;9.79;43.35
73936;BME280;62287;50.858;0.252;2023-03-01T00:08:11;102996.98;;;9.67;43.28
73936;BME280;62287;50.858;0.252;2023-03-01T00:08:42;102999.23;;;9.60;43.35
73936;BME280;62287;50.858;0.252;2023-03-01T00:09:13;103000.12;;;9.70;43.33
73936;BME280;62287;50.858;0.252;2023-03-01T00:09:46;102999.30;;;9.66;43.25
73936;BME280;62287;50.858;0.252;2023-03-01T00:10:17;102998.35;;;9.79;43.18
73936;BME280;62287;50.858;0.252;2023-03-01T00:10:48;102999.23;;;9.64;43.27
73936;BME280;62287;50.858;0.252;2023-03-01T00:11:21;102997.78;;;9.76;43.23
73936;BME280;62287;50.858;0.252;2023-03-01T00:11:53;102995.31;;;9.73;43.40
73936;BME280;62287;50.858;0.252;2023-03-01T00:12:24;102998.06;;;9.74;43.43
73936;BME280;62287;50.858;0.252;2023-03-01T00:12:55;102995.15;;;9.63;43.59
73936;BME280;62287;50.858;0.252;2023-03-01T00:13:26;102994.24;;;9.81;43.43
73936;BME280;62287;50.858;0.252;2023-03-01T00:13:59;102995.22;;;9.69;43.46
73936;BME280;62287;50.858;0.252;2023-03-01T00:14:30;102994.69;;;9.53;43.61
73936;BME280;62287;50.858;0.252;2023-03-01T00:15:03;102995.62;;;9.59;43.55
73936;BME280;62287;50.858;0.252;2023-03-01T00:15:38;102995.22;;;9.77;43.72
73936;BME280;62287;50.858;0.252;2023-03-01T00:16:12;102994.58;;;9.38;43.74
73936;BME280;62287;50.858;0.252;2023-03-01T00:16:44;102991.88;;;9.90;43.65
73936;BME280;62287;50.858;0.252;2023-03-01T00:17:15;102991.14;;;9.96;43.54
73936;BME280;62287;50.858;0.252;2023-03-01T00:17:46;102992.98;;;9.67;43.56
73936;BME280;62287;50.858;0.252;2023-03-01T00:18:17;102990.07;;;9.64;43.59
73936;BME280;62287;50.858;0.252;2023-03-01T00:18:49;102989.61;;;9.45;43.62
73936;BME280;62287;50.858;0.252;2023-03-01T00:19:20;102988.45;;;9.65;43.55
73936;BME280;62287;50.858;0.252;2023-03-01T00:19:51;102985.97;;;9.93;43.41
73936;BME280;62287;50.858;0.252;2023-03-01T00:20:22;102986.23;;;9.57;43.53
73936;BME280;62287;50.858;0.252;2023-03-01T00:20:55;102988.02;;;9.57;43.55
73936;BME280;62287;50.858;0.252;2023-03-01T00:21:26;102985.05;;;9.88;43.54
73936;BME280;62287;50.858;0.252;2023-03-01T00:21:57;102986.31;;;9.46;43.66
73936;BME280;62287;50.858;0.252;2023-03-01T00:22:28;102986.15;;;9.44;43.71
73936;BME280;62287;50.858;0.252;2023-03-01T00:22:59;102985.13;;;9.78;43.69
73936;BME280;62287;50.858;0.252;2023-03-01T00:23:31;102984.48;;;9.52;43.66
73936;BME280;62287;50.858;0.252;2023-03-01T00:24:03;102986.26;;;9.57;43.64
73936;BME280;62287;50.858;0.252;2023-03-01T00:24:34;102986.20;;;9.28;43.92
73936;BME280;62287;50.858;0.252;2023-03-01T00:25:05;102988.22;;;9.23;43.91
73936;BME280;62287;50.858;0.252;2023-03-01T00:25:42;102988.70;;;9.20;43.98
73936;BME280;62287;50.858;0.252;2023-03-01T00:26:13;102989.72;;;9.28;43.93
73936;BME280;62287;50.858;0.252;2023-03-01T00:26:45;102991.16;;;9.45;43.86
73936;BME280;62287;50.858;0.252;2023-03-01T00:27:16;102992.53;;;9.36;43.83
73936;BME280;62287;50.858;0.252;2023-03-01T00:27:47;102991.92;;;9.22;43.96
73936;BME280;62287;50.858;0.252;2023-03-01T00:28:18;102994.88;;;9.15;43.90
73936;BME280;62287;50.858;0.252;2023-03-01T00:28:50;102994.93;;;9.52;44.02
73936;BME280;62287;50.858;0.252;2023-03-01T00:29:22;102996.69;;;10.13;43.82
73936;BME280;62287;50.858;0.252;2023-03-01T00:29:52;102998.53;;;9.29;43.89
73936;BME280;62287;50.858;0.252;2023-03-01T00:30:24;102998.28;;;9.33;43.84
73936;BME280;62287;50.858;0.252;2023-03-01T00:30:54;102999.17;;;9.76;43.77
73936;BME280;62287;50.858;0.252;2023-03-01T00:31:27;102997.83;;;9.27;43.99
73936;BME280;62287;50.858;0.252;2023-03-01T00:31:59;102997.54;;;9.58;44.03
73936;BME280;62287;50.858;0.252;2023-03-01T00:32:30;102995.32;;;9.19;44.05
73936;BME280;62287;50.858;0.252;2023-03-01T00:33:03;102997.25;;;9.32;43.94
73936;BME280;62287;50.858;0.252;2023-03-01T00:33:34;102997.46;;;9.30;43.92
73936;BME280;62287;50.858;0.252;2023-03-01T00:34:06;102996.76;;;9.23;43.91
73936;BME280;62287;50.858;0.252;2023-03-01T00:34:37;102994.72;;;9.55;43.97
73936;BME280;62287;50.858;0.252;2023-03-01T00:35:08;102996.41;;;9.25;43.97
73936;BME280;62287;50.858;0.252;2023-03-01T00:35:39;102995.71;;;9.20;44.00
73936;BME280;62287;50.858;0.252;2023-03-01T00:36:11;102995.49;;;9.17;44.00
73936;BME280;62287;50.858;0.252;2023-03-01T00:36:43;102996.59;;;9.08;44.07
73936;BME280;62287;50.858;0.252;2023-03-01T00:37:14;102994.48;;;9.30;43.92
73936;BME280;62287;50.858;0.252;2023-03-01T00:37:45;102994.93;;;9.28;43.87
73936;BME280;62287;50.858;0.252;2023-03-01T00:38:15;102994.61;;;9.46;43.64
73936;BME280;62287;50.858;0.252;2023-03-01T00:38:47;102994.67;;;9.40;43.79
73936;BME280;62287;50.858;0.252;2023-03-01T00:39:18;102992.68;;;9.40;43.78
73936;BME280;62287;50.858;0.252;2023-03-01T00:39:49;102991.73;;;9.33;43.76
73936;BME280;62287;50.858;0.252;2023-03-01T00:40:20;102990.18;;;9.13;43.97
73936;BME280;62287;50.858;0.252;2023-03-01T00:40:51;102990.01;;;9.18;43.88
73936;BME280;62287;50.858;0.252;2023-03-01T00:41:23;102988.83;;;9.44;43.87
73936;BME280;62287;50.858;0.252;2023-03-01T00:41:54;102988.35;;;9.14;43.92
73936;BME280;62287;50.858;0.252;2023-03-01T00:42:25;102985.92;;;9.15;43.92
73936;BME280;62287;50.858;0.252;2023-03-01T00:42:56;102987.95;;;9.11;43.87
73936;BME280;62287;50.858;0.252;2023-03-01T00:43:27;102985.60;;;9.54;43.91
73936;BME280;62287;50.858;0.252;2023-03-01T00:43:58;102985.28;;;9.33;43.85
73936;BME280;62287;50.858;0.252;2023-03-01T00:44:29;102984.42;;;9.17;43.89
73936;BME280;62287;50.858;0.252;2023-03-01T00:45:00;102986.11;;;9.76;43.74
73936;BME280;62287;50.858;0.252;2023-03-01T00:45:32;102985.78;;;9.59;43.84
73936;BME280;62287;50.858;0.252;2023-03-01T00:46:05;102987.63;;;9.98;43.59
73936;BME280;62287;50.858;0.252;2023-03-01T00:46:36;102985.12;;;9.55;43.72
73936;BME280;62287;50.858;0.252;2023-03-01T00:47:08;102984.82;;;9.64;43.77
73936;BME280;62287;50.858;0.252;2023-03-01T00:47:39;102986.65;;;9.75;43.64
73936;BME280;62287;50.858;0.252;2023-03-01T00:48:10;102986.20;;;9.76;43.69
73936;BME280;62287;50.858;0.252;2023-03-01T00:48:42;102986.18;;;9.81;43.49
73936;BME280;62287;50.858;0.252;2023-03-01T00:49:13;102986.58;;;9.78;43.56
73936;BME280;62287;50.858;0.252;2023-03-01T00:49:49;102986.32;;;9.41;43.53
73936;BME280;62287;50.858;0.252;2023-03-01T00:50:20;102987.94;;;9.75;43.56
73936;BME280;62287;50.858;0.252;2023-03-01T00:50:51;102984.54;;;9.47;43.48
73936;BME280;62287;50.858;0.252;2023-03-01T00:51:24;102984.74;;;9.17;43.73
73936;BME280;62287;50.858;0.252;2023-03-01T00:51:55;102986.41;;;9.10;43.77
73936;BME280;62287;50.858;0.252;2023-03-01T00:52:26;102986.39;;;9.46;43.78
73936;BME280;62287;50.858;0.252;2023-03-01T00:52:57;102986.62;;;9.52;43.88
73936;BME280;62287;50.858;0.252;2023-03-01T00:53:28;102985.26;;;9.14;43.93
73936;BME280;62287;50.858;0.252;2023-03-01T00:54:02;102985.50;;;9.47;43.95
73936;BME280;62287;50.858;0.252;2023-03-01T00:54:33;102986.14;;;9.07;43.92
73936;BME280;62287;50.858;0.252;2023-03-01T00:55:05;102984.73;;;9.34;44.02
73936;BME280;62287;50.858;0.252;2023-03-01T00:55:36;102985.69;;;9.50;43.87
73936;BME280;62287;50.858;0.252;2023-03-01T00:56:09;102988.20;;;9.11;43.99
73936;BME280;62287;50.858;0.252;2023-03-01T00:56:40;102987.87;;;9.59;43.98
73936;BME280;62287;50.858;0.252;2023-03-01T00:57:11;102989.03;;;9.00;44.14
73936;BME280;62287;50.858;0.252;2023-03-01T00:57:42;102989.60;;;8.89;44.26
73936;BME280;62287;50.858;0.252;2023-03-01T00:58:13;102989.78;;;9.09;44.40
73936;BME280;62287;50.858;0.252;2023-03-01T00:58:44;102986.89;;;9.95;43.71
73936;BME280;62287;50.858;0.252;2023-03-01T00:59:15;102985.89;;;10.20;43.29
73936;BME280;62287;50.858;0.252;2023-03-01T00:59:46;102985.20;;;9.76;43.13
73936;BME280;62287;50.858;0.252;2023-03-01T01:00:18;102986.72;;;9.68;43.60
73936;BME280;62287;50.858;0.252;2023-03-01T01:00:50;102985.17;;;10.10;43.39
73936;BME280;62287;50.858;0.252;2023-03-01T01:01:22;102987.42;;;9.96;43.46
73936;BME280;62287;50.858;0.252;2023-03-01T01:01:53;102987.89;;;9.85;43.27
73936;BME280;62287;50.858;0.252;2023-03-01T01:02:25;102984.14;;;10.04;43.32
73936;BME280;62287;50.858;0.252;2023-03-01T01:02:56;102988.45;;;9.97;43.46
73936;BME280;62287;50.858;0.252;2023-03-01T01:03:27;102987.28;;;9.90;43.58
73936;BME280;62287;50.858;0.252;2023-03-01T01:04:00;102990.27;;;10.23;43.68
73936;BME280;62287;50.858;0.252;2023-03-01T01:04:31;102989.22;;;10.22;43.61
73936;BME280;62287;50.858;0.252;2023-03-01T01:05:03;102989.59;;;9.50;43.89
73936;BME280;62287;50.858;0.252;2023-03-01T01:05:34;102989.80;;;9.76;43.86
73936;BME280;62287;50.858;0.252;2023-03-01T01:06:06;102989.56;;;9.46;43.65
73936;BME280;62287;50.858;0.252;2023-03-01T01:06:38;102990.71;;;10.18;43.63
73936;BME280;62287;50.858;0.252;2023-03-01T01:07:09;102989.55;;;10.05;43.28
73936;BME280;62287;50.858;0.252;2023-03-01T01:07:40;102990.98;;;9.94;43.09
73936;BME280;62287;50.858;0.252;2023-03-01T01:08:11;102990.30;;;9.64;42.94
73936;BME280;62287;50.858;0.252;2023-03-01T01:08:43;102991.08;;;9.50;42.96
73936;BME280;62287;50.858;0.252;2023-03-01T01:09:16;102993.30;;;9.99;42.85
73936;BME280;62287;50.858;0.252;2023-03-01T01:09:47;102992.14;;;9.51;42.83
73936;BME280;62287;50.858;0.252;2023-03-01T01:10:18;102991.71;;;9.79;42.89
73936;BME280;62287;50.858;0.252;2023-03-01T01:10:49;102990.73;;;9.50;42.87
73936;BME280;62287;50.858;0.252;2023-03-01T01:11:21;102991.37;;;9.43;42.84
73936;BME280;62287;50.858;0.252;2023-03-01T01:11:53;102994.32;;;9.52;42.74
73936;BME280;62287;50.858;0.252;2023-03-01T01:12:24;102991.32;;;9.80;42.90
73936;BME280;62287;50.858;0.252;2023-03-01T01:12:55;102992.53;;;10.12;42.85
73936;BME280;62287;50.858;0.252;2023-03-01T01:13:26;102991.73;;;9.80;42.71
73936;BME280;62287;50.858;0.252;2023-03-01T01:13:57;102992.11;;;9.62;42.65
73936;BME280;62287;50.858;0.252;2023-03-01T01:14:28;102993.18;;;10.01;42.62
73936;BME280;62287;50.858;0.252;2023-03-01T01:14:59;102991.73;;;10.36;42.72
73936;BME280;62287;50.858;0.252;2023-03-01T01:15:34;102993.26;;;9.48;42.77
73936;BME280;62287;50.858;0.252;2023-03-01T01:16:05;102991.60;;;9.82;42.70
73936;BME280;62287;50.858;0.252;2023-03-01T01:16:37;102991.06;;;9.67;42.84
73936;BME280;62287;50.858;0.252;2023-03-01T01:17:09;102991.84;;;9.56;43.00
73936;BME280;62287;50.858;0.252;2023-03-01T01:17:40;102992.71;;;9.29;42.89
73936;BME280;62287;50.858;0.252;2023-03-01T01:18:11;102994.39;;;9.36;42.83
73936;BME280;62287;50.858;0.252;2023-03-01T01:18:43;102996.13;;;9.52;42.82
73936;BME280;62287;50.858;0.252;2023-03-01T01:19:14;102995.09;;;9.69;42.75
73936;BME280;62287;50.858;0.252;2023-03-01T01:19:45;102993.93;;;9.30;42.76
73936;BME280;62287;50.858;0.252;2023-03-01T01:20:16;102995.59;;;9.60;42.87
73936;BME280;62287;50.858;0.252;2023-03-01T01:20:47;102994.36;;;9.38;42.77
73936;BME280;62287;50.858;0.252;2023-03-01T01:21:21;102995.17;;;9.82;42.74
73936;BME280;62287;50.858;0.252;2023-03-01T01:21:52;102998.24;;;9.41;42.69
73936;BME280;62287;50.858;0.252;2023-03-01T01:22:23;102996.74;;;9.30;42.84
73936;BME280;62287;50.858;0.252;2023-03-01T01:22:54;102997.63;;;9.47;42.81
73936;BME280;62287;50.858;0.252;2023-03-01T01:23:25;102999.74;;;9.93;42.63
73936;BME280;62287;50.858;0.252;2023-03-01T01:23:56;102998.83;;;9.42;42.68
73936;BME280;62287;50.858;0.252;2023-03-01T01:24:27;102998.85;;;9.76;42.74
73936;BME280;62287;50.858;0.252;2023-03-01T01:24:58;103000.52;;;9.51;42.69
73936;BME280;62287;50.858;0.252;2023-03-01T01:25:29;103001.55;;;9.90;42.61
73936;BME280;62287;50.858;0.252;2023-03-01T01:26:05;103001.85;;;9.46;42.60
73936;BME280;62287;50.858;0.252;2023-03-01T01:26:36;103000.86;;;9.30;42.79
73936;BME280;62287;50.858;0.252;2023-03-01T01:27:06;103001.85;;;9.29;42.75
73936;BME280;62287;50.858;0.252;2023-03-01T01:27:37;103000.71;;;9.53;42.65
73936;BME280;62287;50.858;0.252;2023-03-01T01:28:08;103001.91;;;9.91;42.55
73936;BME280;62287;50.858;0.252;2023-03-01T01:28:39;102999.78;;;9.63;42.74
73936;BME280;62287;50.858;0.252;2023-03-01T01:29:12;103000.43;;;9.52;42.59
73936;BME280;62287;50.858;0.252;2023-03-01T01:29:43;103000.56;;;9.71;42.65
73936;BME280;62287;50.858;0.252;2023-03-01T01:30:14;103001.26;;;9.82;42.60
73936;BME280;62287;50.858;0.252;2023-03-01T01:30:44;102999.84;;;9.71;42.74
73936;BME280;62287;50.858;0.252;2023-03-01T01:31:16;102999.92;;;9.45;42.62
73936;BME280;62287;50.858;0.252;2023-03-01T01:31:48;102999.13;;;9.81;42.54
73936;BME280;62287;50.858;0.252;2023-03-01T01:32:19;102997.92;;;9.43;42.59
73936;BME280;62287;50.858;0.252;2023-03-01T01:32:50;102997.24;;;9.31;42.74
73936;BME280;62287;50.858;0.252;2023-03-01T01:33:21;102995.76;;;9.61;42.82
73936;BME280;62287;50.858;0.252;2023-03-01T01:33:53;102998.02;;;9.23;42.86
73936;BME280;62287;50.858;0.252;2023-03-01T01:34:24;102999.48;;;9.39;42.75
73936;BME280;62287;50.858;0.252;2023-03-01T01:34:55;102997.93;;;9.78;42.75
73936;BME280;62287;50.858;0.252;2023-03-01T01:35:27;102995.66;;;9.72;42.78
73936;BME280;62287;50.858;0.252;2023-03-01T01:35:58;102996.28;;;9.74;42.79
73936;BME280;62287;50.858;0.252;2023-03-01T01:36:29;102995.21;;;9.86;42.59
73936;BME280;62287;50.858;0.252;2023-03-01T01:37:02;102994.25;;;9.60;42.56
73936;BME280;62287;50.858;0.252;2023-03-01T01:37:33;102995.45;;;9.58;42.53
73936;BME280;62287;50.858;0.252;2023-03-01T01:38:04;102996.22;;;9.36;42.70
73936;BME280;62287;50.858;0.252;2023-03-01T01:38:37;102994.63;;;9.83;42.59
73936;BME280;62287;50.858;0.252;2023-03-01T01:39:08;102994.16;;;9.85;42.61
73936;BME280;62287;50.858;0.252;2023-03-01T01:39:40;102992.11;;;9.45;42.55
73936;BME280;62287;50.858;0.252;2023-03-01T01:40:12;102991.37;;;9.80;42.64
73936;BME280;62287;50.858;0.252;2023-03-01T01:40:43;102990.03;;;9.56;42.47
73936;BME280;62287;50.858;0.252;2023-03-01T01:41:16;102989.93;;;9.85;42.44
73936;BME280;62287;50.858;0.252;2023-03-01T01:41:47;102986.14;;;9.38;42.62
73936;BME280;62287;50.858;0.252;2023-03-01T01:42:19;102984.71;;;9.31;42.62
73936;BME280;62287;50.858;0.252;2023-03-01T01:42:50;102985.83;;;9.36;42.63
73936;BME280;62287;50.858;0.252;2023-03-01T01:43:23;102985.70;;;9.94;42.45
73936;BME280;62287;50.858;0.252;2023-03-01T01:44:14;102984.70;;;9.46;42.58
73936;BME280;62287;50.858;0.252;2023-03-01T01:44:47;102981.97;;;9.69;42.36
73936;BME280;62287;50.858;0.252;2023-03-01T01:45:30;102981.36;;;9.25;42.62
73936;BME280;62287;50.858;0.252;2023-03-01T01:46:04;102983.35;;;9.33;42.56
73936;BME280;62287;50.858;0.252;2023-03-01T01:46:39;102981.38;;;10.00;42.47
73936;BME280;62287;50.858;0.252;2023-03-01T01:47:14;102981.19;;;9.38;42.52
73936;BME280;62287;50.858;0.252;2023-03-01T01:47:46;102979.34;;;9.46;42.60
73936;BME280;62287;50.858;0.252;2023-03-01T01:48:20;102978.78;;;10.06;42.62
73936;BME280;62287;50.858;0.252;2023-03-01T01:48:56;102976.72;;;9.79;42.66
73936;BME280;62287;50.858;0.252;2023-03-01T01:49:32;102976.94;;;9.93;42.55
73936;BME280;62287;50.858;0.252;2023-03-01T01:50:08;102977.32;;;9.74;42.69
73936;BME280;62287;50.858;0.252;2023-03-01T01:50:45;102976.86;;;9.32;42.73
73936;BME280;62287;50.858;0.252;2023-03-01T01:51:23;102973.41;;;10.21;42.47
73936;BME280;62287;50.858;0.252;2023-03-01T01:52:00;102971.20;;;10.26;42.35
73936;BME280;62287;50.858;0.252;2023-03-01T01:52:36;102971.98;;;10.38;42.30
73936;BME280;62287;50.858;0.252;2023-03-01T01:53:11;102971.58;;;10.06;42.31
73936;BME280;62287;50.858;0.252;2023-03-01T01:53:44;102972.58;;;10.59;42.42
73936;BME280;62287;50.858;0.252;2023-03-01T01:54:21;102971.79;;;10.70;42.43
73936;BME280;62287;50.858;0.252;2023-03-01T01:54:57;102970.27;;;10.79;42.46
73936;BME280;62287;50.858;0.252;2023-03-01T01:55:30;102969.41;;;10.35;42.66
73936;BME280;62287;50.858;0.252;2023-03-01T01:56:03;102968.26;;;10.55;42.65
73936;BME280;62287;50.858;0.252;2023-03-01T01:56:38;102970.15;;;10.64;42.67
73936;BME280;62287;50.858;0.252;2023-03-01T01:57:13;102968.00;;;10.50;42.73
73936;BME280;62287;50.858;0.252;2023-03-01T01:57:47;102965.15;;;11.06;42.83
73936;BME280;62287;50.858;0.252;2023-03-01T01:58:20;102965.99;;;10.87;42.74
73936;BME280;62287;50.858;0.252;2023-03-01T01:58:52;102966.23;;;11.00;42.75
73936;BME280;62287;50.858;0.252;2023-03-01T01:59:24;102964.73;;;11.14;42.67
73936;BME280;62287;50.858;0.252;2023-03-01T01:59:59;102964.26;;;11.34;42.61
73936;BME280;62287;50.858;0.252;2023-03-01T02:00:31;102963.06;;;11.67;42.66
73936;BME280;62287;50.858;0.252;2023-03-01T02:01:03;102962.38;;;11.43;42.60
73936;BME280;62287;50.858;0.252;2023-03-01T02:01:35;102961.71;;;11.49;42.60
73936;BME280;62287;50.858;0.252;2023-03-01T02:02:06;102957.92;;;11.47;42.59
73936;BME280;62287;50.858;0.252;2023-03-01T02:02:37;102957.47;;;11.73;42.48
73936;BME280;62287;50.858;0.252;2023-03-01T02:03:11;102958.19;;;11.86;42.38
73936;BME280;62287;50.858;0.252;2023-03-01T02:03:44;102954.62;;;11.88;42.25
73936;BME280;62287;50.858;0.252;2023-03-01T02:04:17;102953.86;;;12.13;42.11
73936;BME280;62287;50.858;0.252;2023-03-01T02:04:50;102954.84;;;11.94;41.96
73936;BME280;62287;50.858;0.252;2023-03-01T02:05:36;102953.23;;;11.43;41.93
73936;BME280;62287;50.858;0.252;2023-03-01T02:06:17;102953.14;;;12.31;41.96
73936;BME280;62287;50.858;0.252;2023-03-01T02:06:52;102949.48;;;12.00;41.72
73936;BME280;62287;50.858;0.252;2023-03-01T02:07:24;102951.71;;;12.62;41.76
73936;BME280;62287;50.858;0.252;2023-03-01T02:07:57;102951.29;;;11.96;41.74
73936;BME280;62287;50.858;0.252;2023-03-01T02:08:31;102952.15;;;12.03;41.72
73936;BME280;62287;50.858;0.252;2023-03-01T02:09:07;102951.32;;;12.44;41.61
73936;BME280;62287;50.858;0.252;2023-03-01T02:09:47;102950.20;;;12.50;41.58
73936;BME280;62287;50.858;0.252;2023-03-01T02:10:19;102948.78;;;12.20;41.63
73936;BME280;62287;50.858;0.252;2023-03-01T02:10:51;102948.22;;;12.33;41.51
73936;BME280;62287;50.858;0.252;2023-03-01T02:11:24;102948.57;;;12.41;41.42
73936;BME280;62287;50.858;0.252;2023-03-01T02:11:55;102945.75;;;12.49;41.38
73936;BME280;62287;50.858;0.252;2023-03-01T02:12:27;102945.16;;;12.69;41.27
73936;BME280;62287;50.858;0.252;2023-03-01T02:12:58;102944.10;;;12.77;41.22
73936;BME280;62287;50.858;0.252;2023-03-01T02:13:31;102943.41;;;12.83;41.17
73936;BME280;62287;50.858;0.252;2023-03-01T02:14:03;102942.89;;;12.43;41.24
73936;BME280;62287;50.858;0.252;2023-03-01T02:14:34;102941.15;;;12.61;41.09
73936;BME280;62287;50.858;0.252;2023-03-01T02:15:06;102940.12;;;12.83;41.20
73936;BME280;62287;50.858;0.252;2023-03-01T02:15:38;102939.23;;;13.00;41.14
73936;BME280;62287;50.858;0.252;2023-03-01T02:16:11;102938.31;;;13.08;41.09
73936;BME280;62287;50.858;0.252;2023-03-01T02:16:44;102938.26;;;12.73;41.14
73936;BME280;62287;50.858;0.252;2023-03-01T02:17:16;102937.71;;;13.03;41.15
73936;BME280;62287;50.858;0.252;2023-03-01T02:17:48;102935.20;;;13.16;41.10
73936;BME280;62287;50.858;0.252;2023-03-01T02:18:21;102934.57;;;12.92;41.00
73936;BME280;62287;50.858;0.252;2023-03-01T02:18:53;102932.11;;;13.13;40.88
73936;BME280;62287;50.858;0.252;2023-03-01T02:19:35;102932.73;;;12.81;40.86
73936;BME280;62287;50.858;0.252;2023-03-01T02:20:15;102933.04;;;13.58;40.85
73936;BME280;62287;50.858;0.252;2023-03-01T02:21:01;102931.10;;;13.49;40.86
73936;BME280;62287;50.858;0.252;2023-03-01T02:21:42;102930.18;;;13.09;40.85
73936;BME280;62287;50.858;0.252;2023-03-01T02:22:22;102932.02;;;13.30;40.83
73936;BME280;62287;50.858;0.252;2023-03-01T02:22:54;102932.13;;;13.39;40.67
73936;BME280;62287;50.858;0.252;2023-03-01T02:23:25;102931.47;;;13.91;40.60
73936;BME280;62287;50.858;0.252;2023-03-01T02:23:58;102931.56;;;13.14;40.70
73936;BME280;62287;50.858;0.252;2023-03-01T02:24:38;102929.17;;;13.52;40.74
73936;BME280;62287;50.858;0.252;2023-03-01T02:25:22;102931.30;;;13.88;40.74
73936;BME280;62287;50.858;0.252;2023-03-01T02:25:57;102929.68;;;13.39;40.60
73936;BME280;62287;50.858;0.252;2023-03-01T02:26:34;102930.81;;;13.46;40.54
73936;BME280;62287;50.858;0.252;2023-03-01T02:27:07;102928.68;;;13.50;40.50
73936;BME280;62287;50.858;0.252;2023-03-01T02:27:43;102922.50;;;13.46;40.44
73936;BME280;62287;50.858;0.252;2023-03-01T02:28:25;102923.37;;;13.58;40.40
73936;BME280;62287;50.858;0.252;2023-03-01T02:28:56;102919.49;;;13.73;40.31
73936;BME280;62287;50.858;0.252;2023-03-01T02:29:28;102923.15;;;13.81;40.22
73936;BME280;62287;50.858;0.252;2023-03-01T02:29:59;102922.58;;;13.72;40.26
73936;BME280;62287;50.858;0.252;2023-03-01T02:30:31;102921.76;;;13.72;40.28
73936;BME280;62287;50.858;0.252;2023-03-01T02:31:05;102920.63;;;13.65;40.27
73936;BME280;62287;50.858;0.252;2023-03-01T02:31:37;102919.51;;;14.10;40.03
73936;BME280;62287;50.858;0.252;2023-03-01T02:32:08;102919.65;;;14.14;39.89
73936;BME280;62287;50.858;0.252;2023-03-01T02:32:40;102920.20;;;14.06;39.91
73936;BME280;62287;50.858;0.252;2023-03-01T02:33:11;102920.50;;;13.97;40.03
73936;BME280;62287;50.858;0.252;2023-03-01T02:33:43;102920.14;;;13.85;40.01
73936;BME280;62287;50.858;0.252;2023-03-01T02:34:18;102921.85;;;14.39;39.98
73936;BME280;62287;50.858;0.252;2023-03-01T02:34:50;102922.74;;;13.67;39.91
73936;BME280;62287;50.858;0.252;2023-03-01T02:35:21;102922.17;;;14.09;39.84
73936;BME280;62287;50.858;0.252;2023-03-01T02:35:53;102922.76;;;13.51;39.94
73936;BME280;62287;50.858;0.252;2023-03-01T02:36:29;102923.37;;;13.54;40.00
73936;BME280;62287;50.858;0.252;2023-03-01T02:37:07;102921.83;;;13.77;40.06
73936;BME280;62287;50.858;0.252;2023-03-01T02:37:41;102921.64;;;13.78;40.06
73936;BME280;62287;50.858;0.252;2023-03-01T02:38:13;102920.69;;;13.26;40.10
73936;BME280;62287;50.858;0.252;2023-03-01T02:38:45;102920.40;;;13.47;40.08
73936;BME280;62287;50.858;0.252;2023-03-01T02:39:20;102920.71;;;13.71;40.10
73936;BME280;62287;50.858;0.252;2023-03-01T02:39:56;102921.67;;;13.90;39.97
73936;BME280;62287;50.858;0.252;2023-03-01T02:40:29;102919.21;;;13.84;40.02
73936;BME280;62287;50.858;0.252;2023-03-01T02:41:04;102921.18;;;13.76;39.96
73936;BME280;62287;50.858;0.252;2023-03-01T02:41:38;102922.73;;;13.77;39.93
73936;BME280;62287;50.858;0.252;2023-03-01T02:42:13;102923.17;;;13.87;39.88
73936;BME280;62287;50.858;0.252;2023-03-01T02:42:49;102921.70;;;13.81;39.88
73936;BME280;62287;50.858;0.252;2023-03-01T02:43:23;102917.47;;;13.39;39.90
73936;BME280;62287;50.858;0.252;2023-03-01T02:43:56;102918.16;;;13.81;39.85
73936;BME280;62287;50.858;0.252;2023-03-01T02:44:27;102916.60;;;13.42;39.84
73936;BME280;62287;50.858;0.252;2023-03-01T02:44:58;102914.84;;;13.79;39.82
73936;BME280;62287;50.858;0.252;2023-03-01T02:45:29;102913.39;;;13.78;39.81
73936;BME280;62287;50.858;0.252;2023-03-01T02:46:04;102915.37;;;12.96;39.81
73936;BME280;62287;50.858;0.252;2023-03-01T02:46:42;102914.53;;;13.79;39.75
73936;BME280;62287;50.858;0.252;2023-03-01T02:47:14;102917.32;;;13.75;39.73
73936;BME280;62287;50.858;0.252;2023-03-01T02:47:45;102914.00;;;13.78;39.70
73936;BME280;62287;50.858;0.252;2023-03-01T02:48:16;102910.07;;;13.58;39.77
73936;BME280;62287;50.858;0.252;2023-03-01T02:48:48;102908.57;;;13.63;39.78
73936;BME280;62287;50.858;0.252;2023-03-01T02:49:23;102907.81;;;13.61;39.75
73936;BME280;62287;50.858;0.252;2023-03-01T02:49:54;102908.28;;;13.18;39.72
73936;BME280;62287;50.858;0.252;2023-03-01T02:50:44;102907.98;;;13.27;39.72
73936;BME280;62287;50.858;0.252;2023-03-01T02:51:27;102908.72;;;13.23;39.71
73936;BME280;62287;50.858;0.252;2023-03-01T02:52:17;102909.45;;;13.58;39.70